sensor_id;sensor_type;location;lat;lon;timestamp;P1;durP1;ratioP1;P2;durP2;ratioP2
5762;SDS011;2906;53.282;9.508;2024-02-21T00:00:19;34.88;;;16.55;;
5762;SDS011;2906;53.282;9.508;2024-02-21T00:01:22;41.67;;;17.27;;
5762;SDS011;2906;53.282;9.508;2024-02-21T00:02:24;43.35;;;17.05;;
5762;SDS011;2906;53.282;9.508;2024-02-21T00:03:26;44.00;;;16.42;;
5762;SDS011;2906;53.282;9.508;2024-02-21T00:04:28;42.78;;;18.27;;
5762;SDS011;2906;53.282;9.508;2024-02-21T00:05:30;51.22;;;16.00;;
5762;SDS011;2906;53.282;9.508;2024-02-21T00:06:32;43.63;;;16.55;;
5762;SDS011;2906;53.282;9.508;2024-02-21T00:07:35;44.22;;;17.23;;
5762;SDS011;2906;53.282;9.508;2024-02-21T00:08:38;44.72;;;17.55;;
5762;SDS011;2906;53.282;9.508;2024-02-21T00:09:39;43.30;;;17.08;;
5762;SDS011;2906;53.282;9.508;2024-02-21T00:10:42;42.60;;;17.52;;
5762;SDS011;2906;53.282;9.508;2024-02-21T00:11:43;39.15;;;16.83;;
5762;SDS011;2906;53.282;9.508;2024-02-21T00:12:46;43.80;;;17.98;;
5762;SDS011;2906;53.282;9.508;2024-02-21T00:13:47;38.65;;;17.02;;
5762;SDS011;2906;53.282;9.508;2024-02-21T00:14:50;37.78;;;18.70;;
5762;SDS011;2906;53.282;9.508;2024-02-21T00:15:52;45.03;;;16.13;;
5762;SDS011;2906;53.282;9.508;2024-02-21T00:16:54;42.50;;;19.17;;
5762;SDS011;2906;53.282;9.508;2024-02-21T00:17:56;35.50;;;17.52;;
5762;SDS011;2906;53.282;9.508;2024-02-21T00:19:01;48.53;;;18.38;;
5762;SDS011;2906;53.282;9.508;2024-02-21T00:20:03;50.35;;;19.90;;
5762;SDS011;2906;53.282;9.508;2024-02-21T00:21:06;52.85;;;19.42;;
5762;SDS011;2906;53.282;9.508;2024-02-21T00:22:09;43.85;;;17.83;;
5762;SDS011;2906;53.282;9.508;2024-02-21T00:23:14;37.55;;;18.52;;
5762;SDS011;2906;53.282;9.508;2024-02-21T00:24:19;44.28;;;19.77;;
5762;SDS011;2906;53.282;9.508;2024-02-21T00:25:20;40.47;;;17.02;;
5762;SDS011;2906;53.282;9.508;2024-02-21T00:26:23;39.20;;;17.67;;
5762;SDS011;2906;53.282;9.508;2024-02-21T00:27:26;46.03;;;18.55;;
5762;SDS011;2906;53.282;9.508;2024-02-21T00:28:28;42.60;;;19.77;;
5762;SDS011;2906;53.282;9.508;2024-02-21T00:29:30;41.00;;;19.60;;
5762;SDS011;2906;53.282;9.508;2024-02-21T00:30:33;45.25;;;19.17;;
5762;SDS011;2906;53.282;9.508;2024-02-21T00:31:38;53.63;;;18.45;;
5762;SDS011;2906;53.282;9.508;2024-02-21T00:32:45;47.53;;;18.52;;
5762;SDS011;2906;53.282;9.508;2024-02-21T00:33:51;46.10;;;17.58;;
5762;SDS011;2906;53.282;9.508;2024-02-21T00:34:56;40.83;;;17.20;;
5762;SDS011;2906;53.282;9.508;2024-02-21T00:35:58;48.80;;;21.42;;
5762;SDS011;2906;53.282;9.508;2024-02-21T00:37:05;46.15;;;18.00;;
5762;SDS011;2906;53.282;9.508;2024-02-21T00:38:10;44.15;;;18.80;;
5762;SDS011;2906;53.282;9.508;2024-02-21T00:39:18;41.65;;;17.40;;
5762;SDS011;2906;53.282;9.508;2024-02-21T00:40:20;46.65;;;18.52;;
5762;SDS011;2906;53.282;9.508;2024-02-21T00:41:25;41.80;;;18.50;;
5762;SDS011;2906;53.282;9.508;2024-02-21T00:42:28;45.22;;;17.92;;
5762;SDS011;2906;53.282;9.508;2024-02-21T00:43:45;43.08;;;18.73;;
5762;SDS011;2906;53.282;9.508;2024-02-21T00:44:48;39.88;;;17.45;;
5762;SDS011;2906;53.282;9.508;2024-02-21T00:45:59;42.25;;;18.73;;
5762;SDS011;2906;53.282;9.508;2024-02-21T00:47:01;51.78;;;17.58;;
5762;SDS011;2906;53.282;9.508;2024-02-21T00:48:03;43.15;;;18.75;;
5762;SDS011;2906;53.282;9.508;2024-02-21T00:49:06;39.83;;;18.45;;
5762;SDS011;2906;53.282;9.508;2024-02-21T00:50:23;57.55;;;17.10;;
5762;SDS011;2906;53.282;9.508;2024-02-21T00:51:25;32.05;;;17.85;;
5762;SDS011;2906;53.282;9.508;2024-02-21T00:52:26;42.55;;;16.55;;
5762;SDS011;2906;53.282;9.508;2024-02-21T00:53:28;40.72;;;18.90;;
5762;SDS011;2906;53.282;9.508;2024-02-21T00:54:32;40.90;;;19.00;;
5762;SDS011;2906;53.282;9.508;2024-02-21T00:55:34;33.78;;;17.83;;
5762;SDS011;2906;53.282;9.508;2024-02-21T00:56:35;42.22;;;18.70;;
5762;SDS011;2906;53.282;9.508;2024-02-21T00:57:38;42.38;;;17.73;;
5762;SDS011;2906;53.282;9.508;2024-02-21T00:58:39;41.65;;;18.10;;
5762;SDS011;2906;53.282;9.508;2024-02-21T00:59:41;39.42;;;17.52;;
5762;SDS011;2906;53.282;9.508;2024-02-21T01:00:43;42.17;;;17.33;;
5762;SDS011;2906;53.282;9.508;2024-02-21T01:01:45;38.55;;;17.98;;
5762;SDS011;2906;53.282;9.508;2024-02-21T01:02:46;41.85;;;17.50;;
5762;SDS011;2906;53.282;9.508;2024-02-21T01:03:49;49.35;;;18.25;;
5762;SDS011;2906;53.282;9.508;2024-02-21T01:04:53;34.15;;;16.80;;
5762;SDS011;2906;53.282;9.508;2024-02-21T01:05:55;33.33;;;16.55;;
5762;SDS011;2906;53.282;9.508;2024-02-21T01:06:57;44.72;;;18.30;;
5762;SDS011;2906;53.282;9.508;2024-02-21T01:07:59;40.30;;;18.15;;
5762;SDS011;2906;53.282;9.508;2024-02-21T01:09:01;42.75;;;18.92;;
5762;SDS011;2906;53.282;9.508;2024-02-21T01:10:06;45.42;;;18.00;;
5762;SDS011;2906;53.282;9.508;2024-02-21T01:11:07;34.22;;;16.88;;
5762;SDS011;2906;53.282;9.508;2024-02-21T01:12:10;45.35;;;17.92;;
5762;SDS011;2906;53.282;9.508;2024-02-21T01:13:11;38.33;;;17.30;;
5762;SDS011;2906;53.282;9.508;2024-02-21T01:14:14;32.38;;;16.60;;
5762;SDS011;2906;53.282;9.508;2024-02-21T01:15:15;39.95;;;18.08;;
5762;SDS011;2906;53.282;9.508;2024-02-21T01:16:18;40.80;;;17.50;;
5762;SDS011;2906;53.282;9.508;2024-02-21T01:17:19;42.38;;;18.20;;
5762;SDS011;2906;53.282;9.508;2024-02-21T01:18:22;36.92;;;17.10;;
5762;SDS011;2906;53.282;9.508;2024-02-21T01:19:23;43.92;;;18.08;;
5762;SDS011;2906;53.282;9.508;2024-02-21T01:20:26;38.95;;;17.98;;
5762;SDS011;2906;53.282;9.508;2024-02-21T01:21:27;41.72;;;18.75;;
5762;SDS011;2906;53.282;9.508;2024-02-21T01:22:30;42.78;;;18.52;;
5762;SDS011;2906;53.282;9.508;2024-02-21T01:23:31;42.42;;;18.20;;
5762;SDS011;2906;53.282;9.508;2024-02-21T01:24:33;40.13;;;17.02;;
5762;SDS011;2906;53.282;9.508;2024-02-21T01:25:36;43.40;;;19.13;;
5762;SDS011;2906;53.282;9.508;2024-02-21T01:26:39;45.25;;;18.65;;
5762;SDS011;2906;53.282;9.508;2024-02-21T01:27:40;44.35;;;19.00;;
5762;SDS011;2906;53.282;9.508;2024-02-21T01:28:43;39.60;;;18.65;;
5762;SDS011;2906;53.282;9.508;2024-02-21T01:29:45;50.67;;;19.63;;
5762;SDS011;2906;53.282;9.508;2024-02-21T01:30:49;37.20;;;18.95;;
5762;SDS011;2906;53.282;9.508;2024-02-21T01:31:52;37.25;;;19.95;;
5762;SDS011;2906;53.282;9.508;2024-02-21T01:32:54;47.55;;;18.75;;
5762;SDS011;2906;53.282;9.508;2024-02-21T01:33:55;49.47;;;20.10;;
5762;SDS011;2906;53.282;9.508;2024-02-21T01:34:58;42.08;;;19.23;;
5762;SDS011;2906;53.282;9.508;2024-02-21T01:35:59;47.15;;;20.33;;
5762;SDS011;2906;53.282;9.508;2024-02-21T01:37:02;38.20;;;18.45;;
5762;SDS011;2906;53.282;9.508;2024-02-21T01:38:04;43.03;;;20.80;;
5762;SDS011;2906;53.282;9.508;2024-02-21T01:39:07;38.53;;;19.17;;
5762;SDS011;2906;53.282;9.508;2024-02-21T01:40:08;48.97;;;20.63;;
5762;SDS011;2906;53.282;9.508;2024-02-21T01:41:13;39.80;;;20.45;;
5762;SDS011;2906;53.282;9.508;2024-02-21T01:42:15;52.15;;;22.45;;
5762;SDS011;2906;53.282;9.508;2024-02-21T01:43:21;42.72;;;21.35;;
5762;SDS011;2906;53.282;9.508;2024-02-21T01:44:23;47.92;;;22.10;;
5762;SDS011;2906;53.282;9.508;2024-02-21T01:45:25;53.22;;;21.20;;
5762;SDS011;2906;53.282;9.508;2024-02-21T01:46:26;46.50;;;21.60;;
5762;SDS011;2906;53.282;9.508;2024-02-21T01:47:30;50.80;;;22.17;;
5762;SDS011;2906;53.282;9.508;2024-02-21T01:48:32;54.80;;;22.33;;
5762;SDS011;2906;53.282;9.508;2024-02-21T01:49:34;55.67;;;22.20;;
5762;SDS011;2906;53.282;9.508;2024-02-21T01:50:36;50.22;;;22.52;;
5762;SDS011;2906;53.282;9.508;2024-02-21T01:51:38;43.42;;;20.52;;
5762;SDS011;2906;53.282;9.508;2024-02-21T01:52:40;52.28;;;22.98;;
5762;SDS011;2906;53.282;9.508;2024-02-21T01:53:43;48.83;;;20.80;;
5762;SDS011;2906;53.282;9.508;2024-02-21T01:54:46;43.88;;;20.33;;
5762;SDS011;2906;53.282;9.508;2024-02-21T01:55:49;48.38;;;22.58;;
5762;SDS011;2906;53.282;9.508;2024-02-21T01:56:52;56.28;;;21.60;;
5762;SDS011;2906;53.282;9.508;2024-02-21T01:57:54;58.53;;;23.02;;
5762;SDS011;2906;53.282;9.508;2024-02-21T01:58:56;48.25;;;21.17;;
5762;SDS011;2906;53.282;9.508;2024-02-21T01:59:58;42.35;;;22.02;;
5762;SDS011;2906;53.282;9.508;2024-02-21T02:01:00;51.10;;;21.88;;
5762;SDS011;2906;53.282;9.508;2024-02-21T02:02:03;56.53;;;22.00;;
5762;SDS011;2906;53.282;9.508;2024-02-21T02:03:04;50.75;;;21.45;;
5762;SDS011;2906;53.282;9.508;2024-02-21T02:04:07;50.53;;;22.83;;
5762;SDS011;2906;53.282;9.508;2024-02-21T02:05:09;52.97;;;22.90;;
5762;SDS011;2906;53.282;9.508;2024-02-21T02:06:12;49.70;;;21.23;;
5762;SDS011;2906;53.282;9.508;2024-02-21T02:07:14;57.03;;;21.95;;
5762;SDS011;2906;53.282;9.508;2024-02-21T02:08:17;47.45;;;21.65;;
5762;SDS011;2906;53.282;9.508;2024-02-21T02:09:19;48.00;;;23.42;;
5762;SDS011;2906;53.282;9.508;2024-02-21T02:10:21;48.88;;;22.23;;
5762;SDS011;2906;53.282;9.508;2024-02-21T02:11:22;46.00;;;21.52;;
5762;SDS011;2906;53.282;9.508;2024-02-21T02:12:26;51.85;;;21.08;;
5762;SDS011;2906;53.282;9.508;2024-02-21T02:13:28;49.42;;;21.92;;
5762;SDS011;2906;53.282;9.508;2024-02-21T02:14:30;54.05;;;22.08;;
5762;SDS011;2906;53.282;9.508;2024-02-21T02:15:37;53.35;;;23.52;;
5762;SDS011;2906;53.282;9.508;2024-02-21T02:16:39;52.47;;;22.20;;
5762;SDS011;2906;53.282;9.508;2024-02-21T02:17:41;56.92;;;23.25;;
5762;SDS011;2906;53.282;9.508;2024-02-21T02:18:43;52.20;;;21.88;;
5762;SDS011;2906;53.282;9.508;2024-02-21T02:19:45;48.30;;;22.25;;
5762;SDS011;2906;53.282;9.508;2024-02-21T02:20:47;56.40;;;22.27;;
5762;SDS011;2906;53.282;9.508;2024-02-21T02:21:49;51.03;;;22.75;;
5762;SDS011;2906;53.282;9.508;2024-02-21T02:22:55;45.53;;;21.02;;
5762;SDS011;2906;53.282;9.508;2024-02-21T02:24:00;50.63;;;20.80;;
5762;SDS011;2906;53.282;9.508;2024-02-21T02:25:01;46.33;;;20.55;;
5762;SDS011;2906;53.282;9.508;2024-02-21T02:26:04;49.63;;;20.85;;
5762;SDS011;2906;53.282;9.508;2024-02-21T02:27:07;47.22;;;21.67;;
5762;SDS011;2906;53.282;9.508;2024-02-21T02:28:10;51.78;;;21.48;;
5762;SDS011;2906;53.282;9.508;2024-02-21T02:29:12;51.90;;;22.17;;
5762;SDS011;2906;53.282;9.508;2024-02-21T02:30:14;46.88;;;21.13;;
5762;SDS011;2906;53.282;9.508;2024-02-21T02:31:15;49.70;;;21.20;;
5762;SDS011;2906;53.282;9.508;2024-02-21T02:32:18;45.58;;;21.33;;
5762;SDS011;2906;53.282;9.508;2024-02-21T02:33:20;51.97;;;21.25;;
5762;SDS011;2906;53.282;9.508;2024-02-21T02:34:22;48.35;;;20.92;;
5762;SDS011;2906;53.282;9.508;2024-02-21T02:35:24;61.28;;;23.05;;
5762;SDS011;2906;53.282;9.508;2024-02-21T02:36:26;48.85;;;20.55;;
5762;SDS011;2906;53.282;9.508;2024-02-21T02:37:28;58.17;;;22.15;;
5762;SDS011;2906;53.282;9.508;2024-02-21T02:38:29;51.33;;;20.63;;
5762;SDS011;2906;53.282;9.508;2024-02-21T02:39:33;53.13;;;20.95;;
5762;SDS011;2906;53.282;9.508;2024-02-21T02:40:35;42.45;;;19.98;;
5762;SDS011;2906;53.282;9.508;2024-02-21T02:41:37;40.08;;;19.52;;
5762;SDS011;2906;53.282;9.508;2024-02-21T02:42:38;55.42;;;21.92;;
5762;SDS011;2906;53.282;9.508;2024-02-21T02:43:41;41.45;;;19.75;;
5762;SDS011;2906;53.282;9.508;2024-02-21T02:44:42;52.28;;;20.90;;
5762;SDS011;2906;53.282;9.508;2024-02-21T02:45:45;40.53;;;18.73;;
5762;SDS011;2906;53.282;9.508;2024-02-21T02:46:46;45.03;;;19.10;;
5762;SDS011;2906;53.282;9.508;2024-02-21T02:47:49;46.08;;;22.60;;
5762;SDS011;2906;53.282;9.508;2024-02-21T02:48:50;40.58;;;18.73;;
5762;SDS011;2906;53.282;9.508;2024-02-21T02:49:53;40.13;;;19.77;;
5762;SDS011;2906;53.282;9.508;2024-02-21T02:50:56;52.45;;;20.33;;
5762;SDS011;2906;53.282;9.508;2024-02-21T02:51:58;50.75;;;20.05;;
5762;SDS011;2906;53.282;9.508;2024-02-21T02:53:02;49.75;;;20.70;;
5762;SDS011;2906;53.282;9.508;2024-02-21T02:54:06;44.88;;;20.52;;
5762;SDS011;2906;53.282;9.508;2024-02-21T02:55:18;44.45;;;19.02;;
5762;SDS011;2906;53.282;9.508;2024-02-21T02:56:22;50.42;;;18.58;;
5762;SDS011;2906;53.282;9.508;2024-02-21T02:57:26;44.30;;;21.80;;
5762;SDS011;2906;53.282;9.508;2024-02-21T02:58:31;56.70;;;20.35;;
5762;SDS011;2906;53.282;9.508;2024-02-21T02:59:40;37.85;;;19.65;;
5762;SDS011;2906;53.282;9.508;2024-02-21T03:00:51;48.10;;;19.98;;
5762;SDS011;2906;53.282;9.508;2024-02-21T03:01:53;48.92;;;21.48;;
5762;SDS011;2906;53.282;9.508;2024-02-21T03:02:56;46.88;;;20.38;;
5762;SDS011;2906;53.282;9.508;2024-02-21T03:04:00;48.40;;;19.02;;
5762;SDS011;2906;53.282;9.508;2024-02-21T03:05:09;42.28;;;20.80;;
5762;SDS011;2906;53.282;9.508;2024-02-21T03:06:13;43.13;;;18.95;;
5762;SDS011;2906;53.282;9.508;2024-02-21T03:07:18;35.28;;;18.80;;
5762;SDS011;2906;53.282;9.508;2024-02-21T03:08:21;42.45;;;17.63;;
5762;SDS011;2906;53.282;9.508;2024-02-21T03:09:24;44.17;;;19.13;;
5762;SDS011;2906;53.282;9.508;2024-02-21T03:10:27;43.28;;;18.98;;
5762;SDS011;2906;53.282;9.508;2024-02-21T03:11:29;45.33;;;18.42;;
5762;SDS011;2906;53.282;9.508;2024-02-21T03:12:30;51.40;;;19.45;;
5762;SDS011;2906;53.282;9.508;2024-02-21T03:13:34;42.75;;;18.48;;
5762;SDS011;2906;53.282;9.508;2024-02-21T03:14:35;41.13;;;19.15;;
5762;SDS011;2906;53.282;9.508;2024-02-21T03:15:37;42.85;;;19.05;;
5762;SDS011;2906;53.282;9.508;2024-02-21T03:16:39;47.72;;;20.58;;
5762;SDS011;2906;53.282;9.508;2024-02-21T03:17:42;45.83;;;19.02;;
5762;SDS011;2906;53.282;9.508;2024-02-21T03:18:43;37.05;;;19.30;;
5762;SDS011;2906;53.282;9.508;2024-02-21T03:19:46;39.00;;;19.67;;
5762;SDS011;2906;53.282;9.508;2024-02-21T03:20:48;40.83;;;18.73;;
5762;SDS011;2906;53.282;9.508;2024-02-21T03:21:53;45.00;;;19.63;;
5762;SDS011;2906;53.282;9.508;2024-02-21T03:22:55;45.60;;;20.17;;
5762;SDS011;2906;53.282;9.508;2024-02-21T03:23:58;48.25;;;19.80;;
5762;SDS011;2906;53.282;9.508;2024-02-21T03:25:00;47.83;;;18.80;;
5762;SDS011;2906;53.282;9.508;2024-02-21T03:26:06;51.42;;;18.83;;
5762;SDS011;2906;53.282;9.508;2024-02-21T03:27:09;41.47;;;18.15;;
5762;SDS011;2906;53.282;9.508;2024-02-21T03:28:14;45.00;;;18.67;;
5762;SDS011;2906;53.282;9.508;2024-02-21T03:29:16;40.53;;;17.98;;
5762;SDS011;2906;53.282;9.508;2024-02-21T03:30:19;41.35;;;17.75;;
5762;SDS011;2906;53.282;9.508;2024-02-21T03:31:21;41.95;;;18.63;;
5762;SDS011;2906;53.282;9.508;2024-02-21T03:32:24;44.58;;;18.38;;
5762;SDS011;2906;53.282;9.508;2024-02-21T03:33:27;46.95;;;19.40;;
5762;SDS011;2906;53.282;9.508;2024-02-21T03:34:38;44.50;;;19.08;;
5762;SDS011;2906;53.282;9.508;2024-02-21T03:35:41;43.80;;;18.52;;
5762;SDS011;2906;53.282;9.508;2024-02-21T03:36:44;47.85;;;18.45;;
5762;SDS011;2906;53.282;9.508;2024-02-21T03:37:48;43.15;;;17.95;;
5762;SDS011;2906;53.282;9.508;2024-02-21T03:38:51;37.90;;;16.25;;
5762;SDS011;2906;53.282;9.508;2024-02-21T03:39:56;34.75;;;17.10;;
5762;SDS011;2906;53.282;9.508;2024-02-21T03:40:58;53.30;;;18.23;;
5762;SDS011;2906;53.282;9.508;2024-02-21T03:42:02;40.28;;;17.95;;
5762;SDS011;2906;53.282;9.508;2024-02-21T03:43:05;59.50;;;19.15;;
5762;SDS011;2906;53.282;9.508;2024-02-21T03:44:08;34.55;;;16.52;;
5762;SDS011;2906;53.282;9.508;2024-02-21T03:45:10;43.75;;;18.08;;
5762;SDS011;2906;53.282;9.508;2024-02-21T03:46:14;39.25;;;18.10;;
5762;SDS011;2906;53.282;9.508;2024-02-21T03:47:17;41.40;;;18.27;;
5762;SDS011;2906;53.282;9.508;2024-02-21T03:48:29;42.30;;;17.70;;
5762;SDS011;2906;53.282;9.508;2024-02-21T03:49:32;40.40;;;18.70;;
5762;SDS011;2906;53.282;9.508;2024-02-21T03:50:34;43.65;;;18.88;;
5762;SDS011;2906;53.282;9.508;2024-02-21T03:51:39;44.00;;;18.65;;
5762;SDS011;2906;53.282;9.508;2024-02-21T03:52:42;38.25;;;17.45;;
5762;SDS011;2906;53.282;9.508;2024-02-21T03:53:46;34.20;;;17.17;;
5762;SDS011;2906;53.282;9.508;2024-02-21T03:54:48;46.80;;;18.52;;
5762;SDS011;2906;53.282;9.508;2024-02-21T03:55:54;38.67;;;18.33;;
5762;SDS011;2906;53.282;9.508;2024-02-21T03:56:55;48.28;;;19.17;;
5762;SDS011;2906;53.282;9.508;2024-02-21T03:58:01;41.30;;;19.27;;
5762;SDS011;2906;53.282;9.508;2024-02-21T03:59:03;45.38;;;20.42;;
5762;SDS011;2906;53.282;9.508;2024-02-21T04:00:10;42.15;;;17.73;;
5762;SDS011;2906;53.282;9.508;2024-02-21T04:01:15;39.20;;;17.80;;
5762;SDS011;2906;53.282;9.508;2024-02-21T04:02:17;45.20;;;18.25;;
5762;SDS011;2906;53.282;9.508;2024-02-21T04:03:19;41.03;;;18.63;;
5762;SDS011;2906;53.282;9.508;2024-02-21T04:04:22;45.53;;;20.63;;
5762;SDS011;2906;53.282;9.508;2024-02-21T04:05:27;45.25;;;17.45;;
5762;SDS011;2906;53.282;9.508;2024-02-21T04:06:31;35.40;;;16.75;;
5762;SDS011;2906;53.282;9.508;2024-02-21T04:07:33;37.30;;;16.83;;
5762;SDS011;2906;53.282;9.508;2024-02-21T04:08:38;43.40;;;18.55;;
5762;SDS011;2906;53.282;9.508;2024-02-21T04:11:02;39.30;;;19.08;;
5762;SDS011;2906;53.282;9.508;2024-02-21T04:12:04;40.30;;;17.40;;
5762;SDS011;2906;53.282;9.508;2024-02-21T04:13:10;36.17;;;17.05;;
5762;SDS011;2906;53.282;9.508;2024-02-21T04:14:12;44.03;;;17.77;;
5762;SDS011;2906;53.282;9.508;2024-02-21T04:15:15;37.35;;;18.95;;
5762;SDS011;2906;53.282;9.508;2024-02-21T04:16:17;36.95;;;18.40;;
5762;SDS011;2906;53.282;9.508;2024-02-21T04:17:21;38.78;;;19.08;;
5762;SDS011;2906;53.282;9.508;2024-02-21T04:18:24;46.85;;;19.58;;
5762;SDS011;2906;53.282;9.508;2024-02-21T04:19:32;46.90;;;19.92;;
5762;SDS011;2906;53.282;9.508;2024-02-21T04:20:41;42.63;;;19.00;;
5762;SDS011;2906;53.282;9.508;2024-02-21T04:21:45;52.75;;;19.55;;
5762;SDS011;2906;53.282;9.508;2024-02-21T04:22:47;38.63;;;19.45;;
5762;SDS011;2906;53.282;9.508;2024-02-21T04:23:50;53.50;;;19.25;;
5762;SDS011;2906;53.282;9.508;2024-02-21T04:24:53;51.25;;;19.52;;
5762;SDS011;2906;53.282;9.508;2024-02-21T04:25:56;36.40;;;18.35;;
5762;SDS011;2906;53.282;9.508;2024-02-21T04:26:58;40.42;;;19.00;;
5762;SDS011;2906;53.282;9.508;2024-02-21T04:28:01;43.63;;;19.05;;
5762;SDS011;2906;53.282;9.508;2024-02-21T04:29:07;43.38;;;20.73;;
5762;SDS011;2906;53.282;9.508;2024-02-21T04:30:10;42.80;;;18.60;;
5762;SDS011;2906;53.282;9.508;2024-02-21T04:31:15;39.88;;;21.20;;
5762;SDS011;2906;53.282;9.508;2024-02-21T04:32:18;45.47;;;19.75;;
5762;SDS011;2906;53.282;9.508;2024-02-21T04:33:20;45.03;;;20.42;;
5762;SDS011;2906;53.282;9.508;2024-02-21T04:34:24;40.47;;;19.35;;
5762;SDS011;2906;53.282;9.508;2024-02-21T04:35:28;36.20;;;19.23;;
5762;SDS011;2906;53.282;9.508;2024-02-21T04:36:30;42.47;;;19.58;;
5762;SDS011;2906;53.282;9.508;2024-02-21T04:37:34;44.05;;;20.25;;
5762;SDS011;2906;53.282;9.508;2024-02-21T04:38:40;44.03;;;20.15;;
5762;SDS011;2906;53.282;9.508;2024-02-21T04:39:43;44.42;;;19.58;;
5762;SDS011;2906;53.282;9.508;2024-02-21T04:40:46;43.28;;;20.73;;
5762;SDS011;2906;53.282;9.508;2024-02-21T04:41:52;46.72;;;20.13;;
5762;SDS011;2906;53.282;9.508;2024-02-21T04:42:55;42.88;;;19.73;;
5762;SDS011;2906;53.282;9.508;2024-02-21T04:44:01;46.63;;;20.05;;
5762;SDS011;2906;53.282;9.508;2024-02-21T04:45:08;44.58;;;20.38;;
5762;SDS011;2906;53.282;9.508;2024-02-21T04:46:11;46.40;;;19.27;;
5762;SDS011;2906;53.282;9.508;2024-02-21T04:47:20;43.28;;;19.75;;
5762;SDS011;2906;53.282;9.508;2024-02-21T04:48:24;50.78;;;22.27;;
5762;SDS011;2906;53.282;9.508;2024-02-21T04:49:26;51.55;;;19.88;;
5762;SDS011;2906;53.282;9.508;2024-02-21T04:50:30;50.67;;;21.45;;
5762;SDS011;2906;53.282;9.508;2024-02-21T04:51:35;45.42;;;19.95;;
5762;SDS011;2906;53.282;9.508;2024-02-21T04:52:36;38.55;;;19.65;;
5762;SDS011;2906;53.282;9.508;2024-02-21T04:53:38;40.83;;;19.10;;
5762;SDS011;2906;53.282;9.508;2024-02-21T04:54:40;44.28;;;20.73;;
5762;SDS011;2906;53.282;9.508;2024-02-21T04:55:42;44.85;;;20.52;;
5762;SDS011;2906;53.282;9.508;2024-02-21T04:56:44;39.50;;;20.98;;
5762;SDS011;2906;53.282;9.508;2024-02-21T04:57:46;42.55;;;20.50;;
5762;SDS011;2906;53.282;9.508;2024-02-21T04:58:48;37.42;;;17.42;;
5762;SDS011;2906;53.282;9.508;2024-02-21T04:59:50;46.53;;;19.80;;
5762;SDS011;2906;53.282;9.508;2024-02-21T05:00:53;42.80;;;19.35;;
5762;SDS011;2906;53.282;9.508;2024-02-21T05:01:56;43.15;;;19.73;;
5762;SDS011;2906;53.282;9.508;2024-02-21T05:02:58;39.03;;;19.27;;
5762;SDS011;2906;53.282;9.508;2024-02-21T05:04:01;38.28;;;19.50;;
5762;SDS011;2906;53.282;9.508;2024-02-21T05:05:02;43.60;;;18.70;;
5762;SDS011;2906;53.282;9.508;2024-02-21T05:06:06;42.28;;;18.23;;
5762;SDS011;2906;53.282;9.508;2024-02-21T05:07:09;36.85;;;17.75;;
5762;SDS011;2906;53.282;9.508;2024-02-21T05:08:13;39.08;;;17.75;;
5762;SDS011;2906;53.282;9.508;2024-02-21T05:09:20;37.55;;;17.67;;
5762;SDS011;2906;53.282;9.508;2024-02-21T05:10:21;42.17;;;18.50;;
5762;SDS011;2906;53.282;9.508;2024-02-21T05:11:28;40.50;;;17.90;;
5762;SDS011;2906;53.282;9.508;2024-02-21T05:12:29;35.05;;;17.35;;
5762;SDS011;2906;53.282;9.508;2024-02-21T05:13:32;36.50;;;17.63;;
5762;SDS011;2906;53.282;9.508;2024-02-21T05:14:33;39.63;;;18.60;;
5762;SDS011;2906;53.282;9.508;2024-02-21T05:15:37;46.53;;;18.02;;
5762;SDS011;2906;53.282;9.508;2024-02-21T05:16:41;37.75;;;17.73;;
5762;SDS011;2906;53.282;9.508;2024-02-21T05:17:46;30.73;;;16.38;;
5762;SDS011;2906;53.282;9.508;2024-02-21T05:18:53;36.88;;;17.08;;
5762;SDS011;2906;53.282;9.508;2024-02-21T05:19:59;36.30;;;17.42;;
5762;SDS011;2906;53.282;9.508;2024-02-21T05:21:00;44.88;;;18.65;;
5762;SDS011;2906;53.282;9.508;2024-02-21T05:22:07;37.30;;;16.92;;
5762;SDS011;2906;53.282;9.508;2024-02-21T05:23:09;35.78;;;17.52;;
5762;SDS011;2906;53.282;9.508;2024-02-21T05:24:22;31.13;;;16.25;;
5762;SDS011;2906;53.282;9.508;2024-02-21T05:25:24;31.02;;;15.45;;
5762;SDS011;2906;53.282;9.508;2024-02-21T05:26:27;34.80;;;16.38;;
5762;SDS011;2906;53.282;9.508;2024-02-21T05:27:29;32.35;;;16.67;;
5762;SDS011;2906;53.282;9.508;2024-02-21T05:28:31;28.05;;;15.70;;
5762;SDS011;2906;53.282;9.508;2024-02-21T05:29:33;32.78;;;16.33;;
5762;SDS011;2906;53.282;9.508;2024-02-21T05:30:35;27.30;;;16.23;;
5762;SDS011;2906;53.282;9.508;2024-02-21T05:32:56;37.25;;;15.38;;
5762;SDS011;2906;53.282;9.508;2024-02-21T05:33:58;32.53;;;15.50;;
5762;SDS011;2906;53.282;9.508;2024-02-21T05:35:05;27.95;;;16.05;;
5762;SDS011;2906;53.282;9.508;2024-02-21T05:36:12;27.33;;;15.02;;
5762;SDS011;2906;53.282;9.508;2024-02-21T05:37:15;32.80;;;15.70;;
5762;SDS011;2906;53.282;9.508;2024-02-21T05:38:16;29.27;;;14.20;;
5762;SDS011;2906;53.282;9.508;2024-02-21T05:39:21;35.72;;;16.92;;
5762;SDS011;2906;53.282;9.508;2024-02-21T05:40:23;35.70;;;15.13;;
5762;SDS011;2906;53.282;9.508;2024-02-21T05:41:26;26.80;;;14.43;;
5762;SDS011;2906;53.282;9.508;2024-02-21T05:42:27;27.50;;;15.25;;
5762;SDS011;2906;53.282;9.508;2024-02-21T05:43:30;28.15;;;14.50;;
5762;SDS011;2906;53.282;9.508;2024-02-21T05:44:31;30.58;;;15.40;;
5762;SDS011;2906;53.282;9.508;2024-02-21T05:45:34;29.38;;;15.38;;
5762;SDS011;2906;53.282;9.508;2024-02-21T05:46:36;35.53;;;15.60;;
5762;SDS011;2906;53.282;9.508;2024-02-21T05:47:37;29.15;;;14.27;;
5762;SDS011;2906;53.282;9.508;2024-02-21T05:48:42;27.88;;;14.25;;
5762;SDS011;2906;53.282;9.508;2024-02-21T05:49:45;26.55;;;13.13;;
5762;SDS011;2906;53.282;9.508;2024-02-21T05:50:49;28.98;;;15.18;;
5762;SDS011;2906;53.282;9.508;2024-02-21T05:51:50;26.50;;;14.45;;
5762;SDS011;2906;53.282;9.508;2024-02-21T05:52:53;27.10;;;15.10;;
5762;SDS011;2906;53.282;9.508;2024-02-21T05:53:55;27.88;;;14.23;;
5762;SDS011;2906;53.282;9.508;2024-02-21T05:54:58;29.05;;;13.88;;
5762;SDS011;2906;53.282;9.508;2024-02-21T05:55:59;28.13;;;14.57;;
5762;SDS011;2906;53.282;9.508;2024-02-21T05:57:02;25.40;;;14.00;;
5762;SDS011;2906;53.282;9.508;2024-02-21T05:58:04;29.83;;;15.48;;
5762;SDS011;2906;53.282;9.508;2024-02-21T05:59:07;27.05;;;13.55;;
5762;SDS011;2906;53.282;9.508;2024-02-21T06:00:09;32.97;;;14.60;;
5762;SDS011;2906;53.282;9.508;2024-02-21T06:01:12;29.85;;;15.35;;
5762;SDS011;2906;53.282;9.508;2024-02-21T06:02:13;21.38;;;12.52;;
5762;SDS011;2906;53.282;9.508;2024-02-21T06:03:16;27.75;;;14.32;;
5762;SDS011;2906;53.282;9.508;2024-02-21T06:04:19;30.77;;;14.20;;
5762;SDS011;2906;53.282;9.508;2024-02-21T06:05:20;28.27;;;14.13;;
5762;SDS011;2906;53.282;9.508;2024-02-21T06:06:23;25.33;;;14.30;;
5762;SDS011;2906;53.282;9.508;2024-02-21T06:07:25;28.17;;;14.00;;
5762;SDS011;2906;53.282;9.508;2024-02-21T06:08:28;21.77;;;13.55;;
5762;SDS011;2906;53.282;9.508;2024-02-21T06:09:29;27.40;;;14.00;;
5762;SDS011;2906;53.282;9.508;2024-02-21T06:10:32;23.70;;;14.35;;
5762;SDS011;2906;53.282;9.508;2024-02-21T06:11:33;24.65;;;14.40;;
5762;SDS011;2906;53.282;9.508;2024-02-21T06:12:37;27.00;;;14.30;;
5762;SDS011;2906;53.282;9.508;2024-02-21T06:13:40;42.55;;;15.30;;
5762;SDS011;2906;53.282;9.508;2024-02-21T06:14:41;26.23;;;13.65;;
5762;SDS011;2906;53.282;9.508;2024-02-21T06:15:44;26.38;;;13.80;;
5762;SDS011;2906;53.282;9.508;2024-02-21T06:16:45;31.40;;;13.50;;
5762;SDS011;2906;53.282;9.508;2024-02-21T06:17:51;21.83;;;13.30;;
5762;SDS011;2906;53.282;9.508;2024-02-21T06:18:52;24.13;;;13.50;;
5762;SDS011;2906;53.282;9.508;2024-02-21T06:19:56;27.00;;;14.25;;
5762;SDS011;2906;53.282;9.508;2024-02-21T06:20:57;32.78;;;13.15;;
5762;SDS011;2906;53.282;9.508;2024-02-21T06:22:00;21.80;;;13.35;;
5762;SDS011;2906;53.282;9.508;2024-02-21T06:23:01;25.45;;;14.25;;